createdAt,value
2022-10-05T00:01:24.404Z,10.44
2022-10-05T00:03:53.249Z,10.42
2022-10-05T00:06:19.730Z,10.39
2022-10-05T00:08:46.184Z,10.35
2022-10-05T00:11:14.419Z,10.39
2022-10-05T00:13:41.734Z,10.37
2022-10-05T00:16:08.433Z,10.36
2022-10-05T00:18:34.986Z,10.35
2022-10-05T00:21:01.896Z,10.30
2022-10-05T00:23:31.892Z,10.24
2022-10-05T00:26:11.803Z,10.26
2022-10-05T00:28:38.263Z,10.19
2022-10-05T00:31:15.168Z,10.25
2022-10-05T00:33:41.631Z,10.23
2022-10-05T00:36:08.225Z,10.24
2022-10-05T00:38:34.712Z,10.25
2022-10-05T00:41:15.522Z,10.27
2022-10-05T00:43:55.218Z,10.27
2022-10-05T00:46:24.951Z,10.29
2022-10-05T00:49:30.125Z,10.32
2022-10-05T00:52:08.778Z,10.29
2022-10-05T00:54:49.021Z,10.28
2022-10-05T00:57:44.144Z,10.22
2022-10-05T01:00:15.891Z,10.22
2022-10-05T01:03:03.673Z,10.22
2022-10-05T01:05:45.239Z,10.22
2022-10-05T01:08:37.883Z,10.23
2022-10-05T01:11:14.849Z,10.19
2022-10-05T01:13:54.859Z,10.10
2022-10-05T01:16:31.283Z,10.10
2022-10-05T01:19:22.072Z,10.12
2022-10-05T01:22:06.632Z,10.11
2022-10-05T01:25:02.676Z,10.11
2022-10-05T01:27:40.373Z,10.14
2022-10-05T01:30:13.422Z,10.12
2022-10-05T01:33:13.683Z,10.10
2022-10-05T01:36:01.441Z,10.05
2022-10-05T01:38:30.823Z,10.08
2022-10-05T01:41:34.628Z,10.07
2022-10-05T01:44:13.166Z,10.07
2022-10-05T01:46:58.964Z,10.07
2022-10-05T01:49:43.567Z,10.06
2022-10-05T01:52:22.274Z,10.04
2022-10-05T01:55:00.954Z,10.07
2022-10-05T01:57:42.633Z,10.10
2022-10-05T02:00:12.814Z,10.09
2022-10-05T02:02:47.964Z,10.08
2022-10-05T02:05:29.208Z,10.07
2022-10-05T02:08:16.678Z,10.02
2022-10-05T02:10:53.339Z,10.02
2022-10-05T02:13:25.564Z,10.02
2022-10-05T02:15:58.868Z,10.03
2022-10-05T02:18:32.242Z,10.06
2022-10-05T02:21:01.585Z,10.03
2022-10-05T02:23:32.533Z,10.08
2022-10-05T02:26:01.141Z,10.09
2022-10-05T02:28:27.509Z,10.10
2022-10-05T02:31:15.030Z,10.09
2022-10-05T02:33:41.610Z,10.12
2022-10-05T02:36:10.959Z,10.10
2022-10-05T02:38:51.480Z,10.13
2022-10-05T02:41:23.946Z,10.17
2022-10-05T02:44:12.191Z,10.14
2022-10-05T02:47:08.702Z,10.16
2022-10-05T02:50:05.187Z,10.18
2022-10-05T02:52:37.673Z,10.20
2022-10-05T02:55:14.976Z,10.25
2022-10-05T02:57:56.461Z,10.30
2022-10-05T03:00:25.039Z,10.34
2022-10-05T03:03:00.359Z,10.38
2022-10-05T03:05:38.436Z,10.41
2022-10-05T03:08:17.745Z,10.45
2022-10-05T03:11:14.246Z,10.52
2022-10-05T03:13:43.700Z,10.55
2022-10-05T03:16:25.430Z,10.56
2022-10-05T03:19:13.812Z,10.58
2022-10-05T03:21:56.534Z,10.59
2022-10-05T03:24:41.207Z,10.63
2022-10-05T03:27:31.543Z,10.65
2022-10-05T03:30:13.190Z,10.67
2022-10-05T03:33:14.295Z,10.67
2022-10-05T03:35:55.932Z,10.68
2022-10-05T03:38:25.235Z,10.71
2022-10-05T03:41:47.363Z,10.72
2022-10-05T03:44:22.821Z,10.73
2022-10-05T03:47:05.144Z,10.75
2022-10-05T03:49:52.687Z,10.76
2022-10-05T03:52:28.062Z,10.76
2022-10-05T03:55:06.787Z,10.76
2022-10-05T03:57:39.512Z,10.75
2022-10-05T04:00:18.708Z,10.75
2022-10-05T04:03:02.732Z,10.75
2022-10-05T04:05:42.234Z,10.76
2022-10-05T04:08:27.955Z,10.76
2022-10-05T04:11:07.460Z,10.79
2022-10-05T04:13:54.456Z,10.81
2022-10-05T04:16:28.160Z,10.80
2022-10-05T04:19:01.972Z,10.82
2022-10-05T04:21:46.588Z,10.86
2022-10-05T04:24:24.359Z,10.87
2022-10-05T04:26:55.520Z,10.90
2022-10-05T04:29:34.274Z,10.93
2022-10-05T04:32:15.886Z,10.96
2022-10-05T04:34:55.252Z,10.98
2022-10-05T04:38:00.589Z,10.96
2022-10-05T04:40:45.807Z,11.01
2022-10-05T04:43:36.492Z,11.01
2022-10-05T04:46:08.817Z,11.03
2022-10-05T04:48:55.423Z,11.03
2022-10-05T04:51:37.019Z,11.04
2022-10-05T04:54:21.906Z,11.07
2022-10-05T04:56:58.335Z,11.08
2022-10-05T04:59:46.258Z,11.09
2022-10-05T05:02:31.207Z,11.10
2022-10-05T05:05:05.506Z,11.09
2022-10-05T05:07:55.114Z,11.08
2022-10-05T05:11:05.719Z,11.09
2022-10-05T05:13:48.620Z,11.11
2022-10-05T05:16:32.396Z,11.11
2022-10-05T05:19:16.250Z,11.11
2022-10-05T05:21:42.590Z,11.13
2022-10-05T05:24:19.288Z,11.13
2022-10-05T05:27:08.977Z,11.15
2022-10-05T05:30:07.091Z,11.15
2022-10-05T05:32:44.795Z,11.17
2022-10-05T05:35:35.810Z,11.17
2022-10-05T05:38:05.223Z,11.17
2022-10-05T05:40:42.916Z,11.17
2022-10-05T05:43:37.800Z,11.17
2022-10-05T05:46:34.022Z,11.18
2022-10-05T05:49:19.049Z,11.18
2022-10-05T05:51:57.176Z,11.18
2022-10-05T05:54:30.502Z,11.21
2022-10-05T05:57:19.447Z,11.21
2022-10-05T05:59:56.447Z,11.21
2022-10-05T06:02:28.549Z,11.22
2022-10-05T06:05:02.630Z,11.23
2022-10-05T06:07:31.774Z,11.24
2022-10-05T06:10:12.305Z,11.26
2022-10-05T06:12:43.527Z,11.26
2022-10-05T06:15:33.941Z,11.28
2022-10-05T06:18:06.665Z,11.28
2022-10-05T06:21:00.613Z,11.31
2022-10-05T06:23:39.741Z,11.35
2022-10-05T06:26:18.030Z,11.34
2022-10-05T06:28:51.045Z,11.35
2022-10-05T06:31:38.832Z,11.35
2022-10-05T06:34:24.234Z,11.34
2022-10-05T06:37:00.264Z,11.36
2022-10-05T06:39:32.636Z,11.38
2022-10-05T06:42:05.170Z,11.40
2022-10-05T06:44:43.576Z,11.42
2022-10-05T06:47:33.765Z,11.43
2022-10-05T06:50:03.834Z,11.46
2022-10-05T06:52:42.627Z,11.49
2022-10-05T06:55:30.811Z,11.52
2022-10-05T06:58:31.465Z,11.57
2022-10-05T07:01:16.051Z,11.60
2022-10-05T07:04:20.097Z,11.66
2022-10-05T07:06:55.076Z,11.66
2022-10-05T07:09:39.812Z,11.67
2022-10-05T07:12:29.362Z,11.72
2022-10-05T07:15:04.787Z,11.72
2022-10-05T07:17:34.210Z,11.76
2022-10-05T07:20:26.106Z,11.77
2022-10-05T07:23:03.633Z,11.79
2022-10-05T07:25:50.136Z,11.80
2022-10-05T07:28:31.536Z,11.80
2022-10-05T07:31:18.048Z,11.84
2022-10-05T07:33:53.207Z,11.88
2022-10-05T07:36:54.862Z,11.88
2022-10-05T07:39:58.627Z,11.91
2022-10-05T07:42:30.776Z,11.94
2022-10-05T07:45:14.959Z,11.92
2022-10-05T07:47:51.563Z,11.92
2022-10-05T07:50:36.757Z,11.96
2022-10-05T07:53:11.585Z,11.96
2022-10-05T07:55:44.967Z,12.02
2022-10-05T07:58:28.874Z,12.02
2022-10-05T08:01:11.123Z,12.05
2022-10-05T08:03:52.876Z,12.07
2022-10-05T08:06:38.081Z,12.12
2022-10-05T08:09:08.274Z,12.15
2022-10-05T08:11:40.264Z,12.25
2022-10-05T08:14:33.762Z,12.30
2022-10-05T08:17:09.006Z,12.32
2022-10-05T08:20:00.395Z,12.33
2022-10-05T08:22:35.365Z,12.37
2022-10-05T08:25:16.483Z,12.39
2022-10-05T08:27:59.394Z,12.40
2022-10-05T08:30:25.974Z,12.48
2022-10-05T08:33:06.469Z,12.52
2022-10-05T08:35:39.190Z,12.55
2022-10-05T08:38:13.623Z,12.60
2022-10-05T08:41:14.715Z,12.68
2022-10-05T08:44:06.000Z,12.77
2022-10-05T08:47:01.257Z,12.86
2022-10-05T08:49:35.368Z,12.91
2022-10-05T08:52:24.147Z,13.02
2022-10-05T08:55:12.091Z,13.08
2022-10-05T08:58:07.956Z,13.10
2022-10-05T09:01:01.547Z,13.17
2022-10-05T09:03:42.542Z,13.16
2022-10-05T09:06:14.841Z,13.17
2022-10-05T09:09:25.553Z,13.22
2022-10-05T09:12:09.101Z,13.30
2022-10-05T09:15:01.351Z,13.30
2022-10-05T09:18:12.144Z,13.33
2022-10-05T09:20:41.566Z,13.35
2022-10-05T09:23:38.399Z,13.38
2022-10-05T09:26:44.342Z,13.39
2022-10-05T09:29:58.235Z,13.41
2022-10-05T09:32:49.197Z,13.47
2022-10-05T09:35:34.623Z,13.50
2022-10-05T09:38:38.283Z,13.54
2022-10-05T09:41:23.257Z,13.64
2022-10-05T09:44:08.637Z,13.71
2022-10-05T09:46:53.412Z,13.73
2022-10-05T09:49:41.517Z,13.76
2022-10-05T09:52:19.273Z,13.71
2022-10-05T09:54:51.712Z,13.81
2022-10-05T09:57:40.152Z,13.84
2022-10-05T10:00:16.038Z,13.78
2022-10-05T10:02:53.014Z,13.71
2022-10-05T10:05:34.560Z,13.71
2022-10-05T10:08:14.945Z,13.78
2022-10-05T10:10:56.683Z,13.76
2022-10-05T10:13:53.389Z,13.81
2022-10-05T10:17:00.217Z,13.88
2022-10-05T10:20:10.310Z,13.86
2022-10-05T10:22:52.883Z,13.86
2022-10-05T10:25:52.641Z,13.86
2022-10-05T10:28:40.737Z,13.85
2022-10-05T10:31:16.469Z,13.90
2022-10-05T10:34:14.557Z,13.93
2022-10-05T10:37:17.025Z,13.97
2022-10-05T10:40:02.241Z,13.98
2022-10-05T10:42:41.816Z,14.01
2022-10-05T10:45:08.160Z,14.17
2022-10-05T10:48:02.231Z,14.20
2022-10-05T10:50:43.774Z,14.26
2022-10-05T10:53:46.634Z,14.31
2022-10-05T10:56:37.515Z,14.32
2022-10-05T10:59:31.732Z,14.33
2022-10-05T11:02:27.421Z,14.30
2022-10-05T11:05:15.619Z,14.37
2022-10-05T11:08:09.428Z,14.33
2022-10-05T11:10:59.932Z,14.42
2022-10-05T11:13:35.967Z,14.55
2022-10-05T11:16:20.737Z,14.66
2022-10-05T11:18:57.320Z,14.68
2022-10-05T11:21:37.711Z,14.64
2022-10-05T11:24:29.006Z,14.57
2022-10-05T11:27:16.833Z,14.64
2022-10-05T11:30:05.153Z,14.77
2022-10-05T11:32:46.508Z,14.80
2022-10-05T11:35:39.329Z,14.87
2022-10-05T11:38:37.320Z,15.17
2022-10-05T11:41:28.524Z,15.19
2022-10-05T11:44:16.823Z,15.18
2022-10-05T11:46:54.739Z,15.01
2022-10-05T11:49:50.552Z,15.16
2022-10-05T11:52:22.672Z,15.14
2022-10-05T11:55:13.126Z,15.21
2022-10-05T11:58:07.367Z,15.21
2022-10-05T12:00:44.464Z,15.59
2022-10-05T12:03:32.126Z,15.40
2022-10-05T12:06:11.747Z,15.48
2022-10-05T12:09:03.710Z,15.70
2022-10-05T12:11:48.957Z,15.69
2022-10-05T12:14:33.423Z,15.67
2022-10-05T12:17:16.699Z,15.73
2022-10-05T12:20:02.116Z,15.87
2022-10-05T12:22:40.583Z,15.80
2022-10-05T12:25:23.007Z,15.73
2022-10-05T12:27:53.469Z,15.87
2022-10-05T12:30:44.630Z,16.01
2022-10-05T12:33:32.888Z,16.10
2022-10-05T12:36:03.505Z,16.21
2022-10-05T12:38:50.313Z,16.11
2022-10-05T12:41:32.802Z,16.17
2022-10-05T12:44:17.988Z,16.25
2022-10-05T12:47:01.075Z,16.45
2022-10-05T12:49:43.741Z,16.49
2022-10-05T12:52:26.542Z,16.51
2022-10-05T12:55:11.819Z,16.81
2022-10-05T12:57:53.476Z,17.03
2022-10-05T13:00:23.182Z,17.41
2022-10-05T13:02:54.918Z,17.56
2022-10-05T13:05:33.655Z,17.59
2022-10-05T13:08:06.181Z,17.60
2022-10-05T13:11:01.879Z,17.67
2022-10-05T13:13:42.851Z,17.56
2022-10-05T13:16:17.940Z,17.59
2022-10-05T13:18:50.711Z,17.50
2022-10-05T13:21:47.197Z,17.42
2022-10-05T13:24:29.671Z,17.29
2022-10-05T13:27:27.797Z,17.16
2022-10-05T13:30:02.183Z,17.06
2022-10-05T13:32:50.132Z,17.12
2022-10-05T13:35:37.963Z,17.24
2022-10-05T13:38:13.529Z,17.26
2022-10-05T13:40:53.677Z,17.21
2022-10-05T13:43:39.283Z,17.23
2022-10-05T13:46:28.498Z,17.24
2022-10-05T13:48:57.980Z,17.18
2022-10-05T13:51:29.303Z,17.11
2022-10-05T13:54:21.952Z,17.05
2022-10-05T13:57:10.136Z,17.08
2022-10-05T13:59:42.305Z,17.06
2022-10-05T14:02:17.290Z,17.29
2022-10-05T14:04:57.526Z,17.22
2022-10-05T14:07:31.972Z,17.24
2022-10-05T14:09:59.572Z,17.33
2022-10-05T14:12:27.501Z,17.27
2022-10-05T14:15:04.792Z,17.21
2022-10-05T14:17:42.469Z,17.13
2022-10-05T14:20:27.226Z,17.29
2022-10-05T14:23:17.357Z,17.07
2022-10-05T14:25:53.840Z,17.06
2022-10-05T14:28:29.659Z,17.07
2022-10-05T14:31:01.643Z,17.06
2022-10-05T14:33:31.757Z,17.09
2022-10-05T14:35:58.841Z,17.02
2022-10-05T14:38:29.389Z,17.07
2022-10-05T14:41:17.286Z,17.06
2022-10-05T14:47:22.687Z,17.45
2022-10-05T14:50:10.741Z,17.30
2022-10-05T14:52:39.057Z,17.23
2022-10-05T14:55:51.834Z,17.20
2022-10-05T14:58:45.809Z,17.15
2022-10-05T15:01:31.071Z,17.19
2022-10-05T15:04:06.694Z,17.20
2022-10-05T15:06:37.824Z,16.96
2022-10-05T15:09:35.268Z,16.99
2022-10-05T15:12:03.028Z,16.98
2022-10-05T15:14:40.016Z,17.00
2022-10-05T15:17:30.936Z,16.97
2022-10-05T15:20:15.043Z,16.98
2022-10-05T15:22:49.721Z,16.78
2022-10-05T15:25:26.946Z,16.69
2022-10-05T15:28:24.401Z,16.74
2022-10-05T15:31:01.318Z,16.65
2022-10-05T15:33:35.483Z,16.67
2022-10-05T15:36:24.561Z,16.63
2022-10-05T15:39:37.081Z,16.74
2022-10-05T15:42:10.208Z,16.83
2022-10-05T15:44:40.649Z,16.74
2022-10-05T15:47:13.800Z,16.67
2022-10-05T15:49:57.086Z,16.65
2022-10-05T15:53:02.455Z,16.76
2022-10-05T15:55:47.051Z,16.78
2022-10-05T15:58:46.824Z,16.82
2022-10-05T16:01:21.116Z,16.76
2022-10-05T16:04:20.410Z,16.74
2022-10-05T16:07:13.107Z,17.01
2022-10-05T16:09:56.147Z,17.42
2022-10-05T16:12:31.361Z,17.20
2022-10-05T16:15:20.187Z,17.51
2022-10-05T16:18:03.146Z,17.72
2022-10-05T16:20:41.663Z,17.72
2022-10-05T16:23:17.670Z,17.93
2022-10-05T16:26:03.091Z,17.95
2022-10-05T16:28:59.482Z,17.74
2022-10-05T16:31:40.574Z,17.97
2022-10-05T16:34:45.055Z,18.13
2022-10-05T16:37:58.757Z,18.03
2022-10-05T16:40:32.989Z,17.82
2022-10-05T16:43:27.391Z,17.61
2022-10-05T16:46:09.826Z,17.60
2022-10-05T16:49:02.765Z,17.65
2022-10-05T16:51:38.796Z,17.66
2022-10-05T16:54:18.255Z,17.48
2022-10-05T16:56:56.473Z,17.45
2022-10-05T16:59:42.141Z,17.42
2022-10-05T17:02:15.189Z,17.52
2022-10-05T17:05:20.353Z,17.66
2022-10-05T17:07:46.699Z,17.51
2022-10-05T17:10:37.103Z,17.67
2022-10-05T17:13:30.040Z,17.63
2022-10-05T17:16:05.163Z,17.52
2022-10-05T17:18:50.078Z,17.43
2022-10-05T17:21:25.656Z,17.37
2022-10-05T17:23:58.072Z,17.31
2022-10-05T17:26:48.676Z,17.16
2022-10-05T17:29:29.042Z,17.19
2022-10-05T17:32:07.837Z,17.17
2022-10-05T17:35:00.533Z,16.97
2022-10-05T17:37:26.883Z,16.83
2022-10-05T18:32:46.906Z,16.21
2022-10-05T18:35:23.162Z,16.14
2022-10-05T18:38:01.918Z,16.05
2022-10-05T18:40:48.340Z,15.99
2022-10-05T18:44:05.796Z,15.93
2022-10-05T18:46:50.838Z,15.90
2022-10-05T18:49:38.823Z,15.87
2022-10-05T18:52:26.992Z,15.82
2022-10-05T18:54:59.653Z,15.88
2022-10-05T18:57:55.919Z,15.88
2022-10-05T19:00:24.006Z,15.86
2022-10-05T19:03:05.026Z,15.85
2022-10-05T19:05:48.664Z,15.78
2022-10-05T19:08:21.169Z,15.79
2022-10-05T19:10:57.395Z,15.74
2022-10-05T19:13:38.559Z,15.70
2022-10-05T19:16:32.864Z,15.69
2022-10-05T19:19:29.451Z,15.64
2022-10-05T19:22:16.200Z,15.63
2022-10-05T19:25:15.158Z,15.64
2022-10-05T19:28:03.920Z,15.65
2022-10-05T19:31:04.537Z,15.74
2022-10-05T19:33:52.964Z,15.74
2022-10-05T19:36:51.258Z,15.82
2022-10-05T19:39:41.945Z,15.92
2022-10-05T19:42:37.073Z,16.05
2022-10-05T19:45:14.505Z,16.08
2022-10-05T19:48:19.171Z,15.97
2022-10-05T19:51:00.190Z,15.93
2022-10-05T19:53:32.555Z,15.92
2022-10-05T19:56:17.412Z,15.86
2022-10-05T19:58:44.679Z,15.83
2022-10-05T20:01:21.710Z,15.83
2022-10-05T20:03:48.592Z,15.82
2022-10-05T20:06:14.999Z,15.82
2022-10-05T20:08:46.470Z,15.86
2022-10-05T20:11:16.703Z,15.86
2022-10-05T20:14:10.131Z,15.86
2022-10-05T20:16:55.151Z,15.88
2022-10-05T20:19:34.896Z,15.81
2022-10-05T20:22:25.392Z,15.81
2022-10-05T20:24:54.111Z,15.83
2022-10-05T20:27:42.042Z,15.90
2022-10-05T20:30:10.840Z,16.15
2022-10-05T20:32:37.230Z,16.16
2022-10-05T20:35:04.152Z,16.07
2022-10-05T20:37:30.588Z,16.03
2022-10-05T20:39:57.011Z,15.98
2022-10-05T20:42:23.754Z,15.96
2022-10-05T20:44:55.808Z,16.02
2022-10-05T20:47:23.818Z,16.21
2022-10-05T20:49:50.254Z,16.32
2022-10-05T20:52:16.704Z,16.34
2022-10-05T20:54:43.191Z,16.40
2022-10-05T20:57:10.491Z,16.36
2022-10-05T20:59:37.426Z,16.57
2022-10-05T21:02:04.840Z,16.49
2022-10-05T21:04:40.045Z,16.55
2022-10-05T21:07:07.202Z,16.72
2022-10-05T21:09:33.664Z,16.81
2022-10-05T21:12:00.100Z,16.70
2022-10-05T21:14:30.476Z,16.70
2022-10-05T21:16:56.972Z,16.62
2022-10-05T21:19:23.398Z,16.83
2022-10-05T21:21:49.849Z,16.90
2022-10-05T21:24:17.387Z,16.87
2022-10-05T21:26:44.919Z,17.02
2022-10-05T21:29:12.881Z,16.99
2022-10-05T21:31:40.061Z,16.98
2022-10-05T21:34:06.959Z,16.88
2022-10-05T21:36:33.408Z,17.10
2022-10-05T21:38:59.840Z,17.02
2022-10-05T21:41:26.631Z,17.02
2022-10-05T21:43:53.369Z,17.06
2022-10-05T21:46:22.893Z,17.02
2022-10-05T21:48:49.819Z,17.01
2022-10-05T21:51:18.814Z,17.00
2022-10-05T21:53:54.888Z,16.95
2022-10-05T21:56:25.691Z,16.99
2022-10-05T21:58:52.563Z,16.93
2022-10-05T22:01:22.442Z,16.98
2022-10-05T22:03:49.549Z,16.76
2022-10-05T22:06:15.989Z,16.19
2022-10-05T22:08:42.471Z,15.85
2022-10-05T22:11:12.862Z,15.67
2022-10-05T22:13:45.292Z,15.48
2022-10-05T22:16:12.932Z,15.38
2022-10-05T22:18:39.859Z,15.33
2022-10-05T22:21:07.963Z,15.27
2022-10-05T22:23:35.728Z,15.21
2022-10-05T22:26:03.871Z,15.19
2022-10-05T22:28:32.427Z,15.16
2022-10-05T22:31:03.191Z,15.14
2022-10-05T22:33:29.714Z,15.13
2022-10-05T22:35:58.935Z,15.11
2022-10-05T22:38:26.038Z,15.09
2022-10-05T22:40:52.643Z,15.06
2022-10-05T22:43:19.522Z,15.05
2022-10-05T22:45:46.042Z,15.06
2022-10-05T22:48:12.792Z,15.07
2022-10-05T22:50:39.323Z,15.05
2022-10-05T22:53:05.798Z,15.04
2022-10-05T22:55:32.199Z,15.01
2022-10-05T22:57:58.594Z,15.01
2022-10-05T23:00:40.505Z,14.99
2022-10-05T23:03:11.921Z,15.02
2022-10-05T23:05:38.332Z,15.02
2022-10-05T23:08:04.773Z,15.07
2022-10-05T23:10:32.217Z,15.08
2022-10-05T23:13:00.954Z,15.06
2022-10-05T23:15:27.692Z,15.04
2022-10-05T23:17:56.061Z,15.02
2022-10-05T23:20:24.541Z,14.98
2022-10-05T23:22:51.020Z,14.61
2022-10-05T23:25:17.832Z,14.20
2022-10-05T23:27:44.357Z,13.84
2022-10-05T23:30:12.290Z,13.75
2022-10-05T23:32:43.673Z,13.44
2022-10-05T23:35:12.765Z,13.28
2022-10-05T23:37:41.346Z,13.14
2022-10-05T23:40:09.822Z,12.96
2022-10-05T23:42:36.221Z,13.00
2022-10-05T23:45:02.777Z,13.04
2022-10-05T23:47:29.428Z,12.97
2022-10-05T23:49:55.845Z,13.05
2022-10-05T23:52:22.326Z,12.88
2022-10-05T23:54:48.720Z,12.92
2022-10-05T23:57:19.404Z,12.96
2022-10-05T23:59:46.232Z,12.98
